sensor_id;sensor_type;location;lat;lon;timestamp;temperature;humidity
71237;DHT22;58984;51.960;5.582;2022-08-18T00:01:22;27.80;54.00
71237;DHT22;58984;51.960;5.582;2022-08-18T00:03:48;27.70;54.50
71237;DHT22;58984;51.960;5.582;2022-08-18T00:06:15;27.70;54.30
71237;DHT22;58984;51.960;5.582;2022-08-18T00:08:41;27.60;54.20
71237;DHT22;58984;51.960;5.582;2022-08-18T00:11:07;27.60;54.20
71237;DHT22;58984;51.960;5.582;2022-08-18T00:13:33;27.60;54.20
71237;DHT22;58984;51.960;5.582;2022-08-18T00:15:58;27.60;54.20
71237;DHT22;58984;51.960;5.582;2022-08-18T00:18:24;27.60;54.20
71237;DHT22;58984;51.960;5.582;2022-08-18T00:20:50;27.60;54.20
71237;DHT22;58984;51.960;5.582;2022-08-18T00:23:15;27.60;54.20
71237;DHT22;58984;51.960;5.582;2022-08-18T00:25:41;27.50;54.10
71237;DHT22;58984;51.960;5.582;2022-08-18T00:28:07;27.50;54.10
71237;DHT22;58984;51.960;5.582;2022-08-18T00:30:33;27.50;54.10
71237;DHT22;58984;51.960;5.582;2022-08-18T00:33:00;27.50;54.00
71237;DHT22;58984;51.960;5.582;2022-08-18T00:35:27;27.50;54.10
71237;DHT22;58984;51.960;5.582;2022-08-18T00:37:56;27.50;54.10
71237;DHT22;58984;51.960;5.582;2022-08-18T00:40:28;27.40;53.90
71237;DHT22;58984;51.960;5.582;2022-08-18T00:42:58;27.40;54.00
71237;DHT22;58984;51.960;5.582;2022-08-18T00:45:33;27.40;53.80
71237;DHT22;58984;51.960;5.582;2022-08-18T00:48:01;27.40;53.80
71237;DHT22;58984;51.960;5.582;2022-08-18T00:50:41;27.40;53.70
71237;DHT22;58984;51.960;5.582;2022-08-18T00:53:33;27.30;53.90
71237;DHT22;58984;51.960;5.582;2022-08-18T00:56:06;27.30;54.00
71237;DHT22;58984;51.960;5.582;2022-08-18T00:58:36;27.30;53.60
71237;DHT22;58984;51.960;5.582;2022-08-18T01:01:05;27.30;53.70
71237;DHT22;58984;51.960;5.582;2022-08-18T01:03:32;27.30;53.60
71237;DHT22;58984;51.960;5.582;2022-08-18T01:05:59;27.30;53.60
71237;DHT22;58984;51.960;5.582;2022-08-18T01:08:25;27.30;53.70
71237;DHT22;58984;51.960;5.582;2022-08-18T01:10:51;27.30;53.70
71237;DHT22;58984;51.960;5.582;2022-08-18T01:13:18;27.30;53.80
71237;DHT22;58984;51.960;5.582;2022-08-18T01:15:43;27.20;53.70
71237;DHT22;58984;51.960;5.582;2022-08-18T01:18:11;27.20;53.70
71237;DHT22;58984;51.960;5.582;2022-08-18T01:21:19;27.20;53.60
71237;DHT22;58984;51.960;5.582;2022-08-18T01:24:07;27.10;53.70
71237;DHT22;58984;51.960;5.582;2022-08-18T01:26:39;27.20;53.50
71237;DHT22;58984;51.960;5.582;2022-08-18T01:29:09;27.10;53.60
71237;DHT22;58984;51.960;5.582;2022-08-18T01:31:39;27.20;53.70
71237;DHT22;58984;51.960;5.582;2022-08-18T01:34:07;27.10;53.70
71237;DHT22;58984;51.960;5.582;2022-08-18T01:36:35;27.20;53.80
71237;DHT22;58984;51.960;5.582;2022-08-18T01:39:04;27.10;53.90
71237;DHT22;58984;51.960;5.582;2022-08-18T01:41:30;27.10;53.80
71237;DHT22;58984;51.960;5.582;2022-08-18T01:43:58;27.10;53.80
71237;DHT22;58984;51.960;5.582;2022-08-18T01:46:25;27.10;53.90
71237;DHT22;58984;51.960;5.582;2022-08-18T01:48:51;27.10;53.90
71237;DHT22;58984;51.960;5.582;2022-08-18T01:51:17;27.10;53.90
71237;DHT22;58984;51.960;5.582;2022-08-18T01:53:44;27.10;53.90
71237;DHT22;58984;51.960;5.582;2022-08-18T01:56:10;27.10;54.50
71237;DHT22;58984;51.960;5.582;2022-08-18T01:58:37;27.10;53.90
71237;DHT22;58984;51.960;5.582;2022-08-18T02:01:03;27.10;53.90
71237;DHT22;58984;51.960;5.582;2022-08-18T02:03:36;27.10;53.80
71237;DHT22;58984;51.960;5.582;2022-08-18T02:06:05;27.00;53.80
71237;DHT22;58984;51.960;5.582;2022-08-18T02:08:32;27.10;53.90
71237;DHT22;58984;51.960;5.582;2022-08-18T02:10:58;27.10;53.90
71237;DHT22;58984;51.960;5.582;2022-08-18T02:13:25;27.10;53.90
71237;DHT22;58984;51.960;5.582;2022-08-18T02:15:51;27.00;53.80
71237;DHT22;58984;51.960;5.582;2022-08-18T02:18:21;27.00;53.80
71237;DHT22;58984;51.960;5.582;2022-08-18T02:20:47;27.10;53.90
71237;DHT22;58984;51.960;5.582;2022-08-18T02:23:13;27.10;53.90
71237;DHT22;58984;51.960;5.582;2022-08-18T02:25:41;27.10;53.90
71237;DHT22;58984;51.960;5.582;2022-08-18T02:28:07;27.00;53.80
71237;DHT22;58984;51.960;5.582;2022-08-18T02:30:33;27.00;53.80
71237;DHT22;58984;51.960;5.582;2022-08-18T02:32:59;27.00;53.80
71237;DHT22;58984;51.960;5.582;2022-08-18T02:35:26;27.00;53.80
71237;DHT22;58984;51.960;5.582;2022-08-18T02:37:51;27.00;53.80
71237;DHT22;58984;51.960;5.582;2022-08-18T02:40:17;27.00;53.80
71237;DHT22;58984;51.960;5.582;2022-08-18T02:42:44;27.00;53.80
71237;DHT22;58984;51.960;5.582;2022-08-18T02:45:10;27.00;53.90
71237;DHT22;58984;51.960;5.582;2022-08-18T02:47:37;27.00;54.00
71237;DHT22;58984;51.960;5.582;2022-08-18T02:50:03;27.00;54.50
71237;DHT22;58984;51.960;5.582;2022-08-18T02:52:29;27.00;54.00
71237;DHT22;58984;51.960;5.582;2022-08-18T02:54:58;27.00;54.00
71237;DHT22;58984;51.960;5.582;2022-08-18T02:57:27;27.00;54.10
71237;DHT22;58984;51.960;5.582;2022-08-18T02:59:52;27.00;54.10
71237;DHT22;58984;51.960;5.582;2022-08-18T03:02:18;27.00;54.10
71237;DHT22;58984;51.960;5.582;2022-08-18T03:04:45;27.00;54.00
71237;DHT22;58984;51.960;5.582;2022-08-18T03:07:11;26.90;54.70
71237;DHT22;58984;51.960;5.582;2022-08-18T03:09:39;26.90;54.10
71237;DHT22;58984;51.960;5.582;2022-08-18T03:12:05;27.00;54.20
71237;DHT22;58984;51.960;5.582;2022-08-18T03:14:32;27.00;54.10
71237;DHT22;58984;51.960;5.582;2022-08-18T03:16:57;26.90;54.10
71237;DHT22;58984;51.960;5.582;2022-08-18T03:19:28;27.00;54.10
71237;DHT22;58984;51.960;5.582;2022-08-18T03:21:54;26.90;54.20
71237;DHT22;58984;51.960;5.582;2022-08-18T03:24:20;27.00;54.20
71237;DHT22;58984;51.960;5.582;2022-08-18T03:26:46;26.90;54.20
71237;DHT22;58984;51.960;5.582;2022-08-18T03:29:12;27.00;54.20
71237;DHT22;58984;51.960;5.582;2022-08-18T03:31:40;26.90;54.20
71237;DHT22;58984;51.960;5.582;2022-08-18T03:34:06;26.90;54.20
71237;DHT22;58984;51.960;5.582;2022-08-18T03:36:33;26.90;54.20
71237;DHT22;58984;51.960;5.582;2022-08-18T03:39:08;26.90;54.20
71237;DHT22;58984;51.960;5.582;2022-08-18T03:41:37;26.80;54.30
71237;DHT22;58984;51.960;5.582;2022-08-18T03:44:03;26.90;54.20
71237;DHT22;58984;51.960;5.582;2022-08-18T03:46:29;26.90;54.20
71237;DHT22;58984;51.960;5.582;2022-08-18T03:48:57;26.90;54.20
71237;DHT22;58984;51.960;5.582;2022-08-18T03:51:25;26.90;54.20
71237;DHT22;58984;51.960;5.582;2022-08-18T03:53:54;26.90;54.20
71237;DHT22;58984;51.960;5.582;2022-08-18T03:56:24;26.90;54.20
71237;DHT22;58984;51.960;5.582;2022-08-18T03:58:56;26.80;54.20
71237;DHT22;58984;51.960;5.582;2022-08-18T04:01:25;26.80;54.30
71237;DHT22;58984;51.960;5.582;2022-08-18T04:03:57;26.90;54.20
71237;DHT22;58984;51.960;5.582;2022-08-18T04:06:32;26.80;54.10
71237;DHT22;58984;51.960;5.582;2022-08-18T04:09:02;26.90;54.10
71237;DHT22;58984;51.960;5.582;2022-08-18T04:11:31;26.80;54.00
71237;DHT22;58984;51.960;5.582;2022-08-18T04:13:57;26.80;54.00
71237;DHT22;58984;51.960;5.582;2022-08-18T04:16:27;26.80;54.10
71237;DHT22;58984;51.960;5.582;2022-08-18T04:18:54;26.80;54.10
71237;DHT22;58984;51.960;5.582;2022-08-18T04:21:22;26.80;54.00
71237;DHT22;58984;51.960;5.582;2022-08-18T04:23:48;26.80;54.00
71237;DHT22;58984;51.960;5.582;2022-08-18T04:26:14;26.80;54.00
71237;DHT22;58984;51.960;5.582;2022-08-18T04:28:39;26.80;54.00
71237;DHT22;58984;51.960;5.582;2022-08-18T04:31:13;26.80;54.00
71237;DHT22;58984;51.960;5.582;2022-08-18T04:33:38;26.70;54.10
71237;DHT22;58984;51.960;5.582;2022-08-18T04:36:13;26.90;53.80
71237;DHT22;58984;51.960;5.582;2022-08-18T04:38:39;26.80;53.70
71237;DHT22;58984;51.960;5.582;2022-08-18T04:41:07;26.80;53.70
71237;DHT22;58984;51.960;5.582;2022-08-18T04:43:32;26.70;53.70
71237;DHT22;58984;51.960;5.582;2022-08-18T04:45:58;26.70;54.00
71237;DHT22;58984;51.960;5.582;2022-08-18T04:48:38;26.70;54.00
71237;DHT22;58984;51.960;5.582;2022-08-18T04:51:10;26.60;54.10
71237;DHT22;58984;51.960;5.582;2022-08-18T04:53:36;26.70;53.90
71237;DHT22;58984;51.960;5.582;2022-08-18T04:56:27;26.70;53.90
71237;DHT22;58984;51.960;5.582;2022-08-18T04:58:53;26.60;54.10
71237;DHT22;58984;51.960;5.582;2022-08-18T05:01:23;26.60;53.90
71237;DHT22;58984;51.960;5.582;2022-08-18T05:03:50;26.60;54.00
71237;DHT22;58984;51.960;5.582;2022-08-18T05:06:17;26.60;54.00
71237;DHT22;58984;51.960;5.582;2022-08-18T05:08:42;26.60;53.90
71237;DHT22;58984;51.960;5.582;2022-08-18T05:11:08;26.60;54.00
71237;DHT22;58984;51.960;5.582;2022-08-18T05:13:34;26.60;54.00
71237;DHT22;58984;51.960;5.582;2022-08-18T05:16:00;26.60;54.00
71237;DHT22;58984;51.960;5.582;2022-08-18T05:18:32;26.50;54.00
71237;DHT22;58984;51.960;5.582;2022-08-18T05:20:59;26.50;54.10
71237;DHT22;58984;51.960;5.582;2022-08-18T05:23:26;26.50;54.10
71237;DHT22;58984;51.960;5.582;2022-08-18T05:25:57;26.50;54.00
71237;DHT22;58984;51.960;5.582;2022-08-18T05:28:23;26.50;54.10
71237;DHT22;58984;51.960;5.582;2022-08-18T05:30:48;26.50;54.10
71237;DHT22;58984;51.960;5.582;2022-08-18T05:33:14;26.50;54.10
71237;DHT22;58984;51.960;5.582;2022-08-18T05:35:48;26.50;54.20
71237;DHT22;58984;51.960;5.582;2022-08-18T05:41:10;26.40;54.20
71237;DHT22;58984;51.960;5.582;2022-08-18T05:43:36;26.40;54.20
71237;DHT22;58984;51.960;5.582;2022-08-18T05:46:05;26.50;54.20
71237;DHT22;58984;51.960;5.582;2022-08-18T05:48:32;26.50;54.20
71237;DHT22;58984;51.960;5.582;2022-08-18T05:50:58;26.50;54.30
71237;DHT22;58984;51.960;5.582;2022-08-18T05:53:28;26.50;54.20
71237;DHT22;58984;51.960;5.582;2022-08-18T05:56:12;26.50;54.20
71237;DHT22;58984;51.960;5.582;2022-08-18T05:58:59;26.50;54.30
71237;DHT22;58984;51.960;5.582;2022-08-18T06:01:33;26.50;54.30
71237;DHT22;58984;51.960;5.582;2022-08-18T06:04:10;26.40;54.30
71237;DHT22;58984;51.960;5.582;2022-08-18T06:06:39;26.40;54.30
71237;DHT22;58984;51.960;5.582;2022-08-18T06:09:16;26.40;54.30
71237;DHT22;58984;51.960;5.582;2022-08-18T06:11:44;26.30;54.50
71237;DHT22;58984;51.960;5.582;2022-08-18T06:14:10;26.50;54.50
71237;DHT22;58984;51.960;5.582;2022-08-18T06:16:55;26.40;54.50
71237;DHT22;58984;51.960;5.582;2022-08-18T06:19:44;26.30;54.60
71237;DHT22;58984;51.960;5.582;2022-08-18T06:28:07;26.40;54.70
71237;DHT22;58984;51.960;5.582;2022-08-18T06:39:04;26.50;54.60
71237;DHT22;58984;51.960;5.582;2022-08-18T06:41:41;26.40;54.70
71237;DHT22;58984;51.960;5.582;2022-08-18T06:51:55;26.40;55.60
71237;DHT22;58984;51.960;5.582;2022-08-18T06:56:51;26.50;55.00
71237;DHT22;58984;51.960;5.582;2022-08-18T06:59:28;26.40;55.10
71237;DHT22;58984;51.960;5.582;2022-08-18T07:02:20;26.40;55.10
71237;DHT22;58984;51.960;5.582;2022-08-18T07:05:05;26.40;55.20
71237;DHT22;58984;51.960;5.582;2022-08-18T07:07:36;26.40;55.10
71237;DHT22;58984;51.960;5.582;2022-08-18T07:10:17;26.50;55.10
71237;DHT22;58984;51.960;5.582;2022-08-18T07:12:51;26.50;55.20
71237;DHT22;58984;51.960;5.582;2022-08-18T07:15:29;26.60;55.20
71237;DHT22;58984;51.960;5.582;2022-08-18T07:18:05;26.60;55.20
71237;DHT22;58984;51.960;5.582;2022-08-18T07:20:50;26.50;55.30
71237;DHT22;58984;51.960;5.582;2022-08-18T07:25:49;26.60;55.10
71237;DHT22;58984;51.960;5.582;2022-08-18T07:28:36;26.60;55.20
71237;DHT22;58984;51.960;5.582;2022-08-18T07:34:17;26.60;55.00
71237;DHT22;58984;51.960;5.582;2022-08-18T07:36:56;26.60;55.20
71237;DHT22;58984;51.960;5.582;2022-08-18T07:39:29;26.60;55.00
71237;DHT22;58984;51.960;5.582;2022-08-18T07:42:12;26.70;55.00
71237;DHT22;58984;51.960;5.582;2022-08-18T07:47:22;26.70;55.00
71237;DHT22;58984;51.960;5.582;2022-08-18T07:49:50;26.70;54.70
71237;DHT22;58984;51.960;5.582;2022-08-18T07:52:35;26.80;54.70
71237;DHT22;58984;51.960;5.582;2022-08-18T07:55:22;26.70;54.90
71237;DHT22;58984;51.960;5.582;2022-08-18T07:58:14;26.70;54.80
71237;DHT22;58984;51.960;5.582;2022-08-18T08:06:18;26.80;54.90
71237;DHT22;58984;51.960;5.582;2022-08-18T08:16:50;26.80;54.30
71237;DHT22;58984;51.960;5.582;2022-08-18T08:27:29;26.90;54.00
71237;DHT22;58984;51.960;5.582;2022-08-18T08:29:59;27.00;54.00
71237;DHT22;58984;51.960;5.582;2022-08-18T08:32:34;27.10;53.90
71237;DHT22;58984;51.960;5.582;2022-08-18T08:35:07;27.10;54.20
71237;DHT22;58984;51.960;5.582;2022-08-18T08:37:43;27.20;54.10
71237;DHT22;58984;51.960;5.582;2022-08-18T08:40:44;27.10;54.30
71237;DHT22;58984;51.960;5.582;2022-08-18T08:43:33;27.20;54.60
71237;DHT22;58984;51.960;5.582;2022-08-18T08:46:14;27.20;54.50
71237;DHT22;58984;51.960;5.582;2022-08-18T08:48:45;27.40;54.20
71237;DHT22;58984;51.960;5.582;2022-08-18T08:51:43;27.40;54.40
71237;DHT22;58984;51.960;5.582;2022-08-18T08:54:37;27.40;54.50
71237;DHT22;58984;51.960;5.582;2022-08-18T08:57:04;27.50;54.60
71237;DHT22;58984;51.960;5.582;2022-08-18T08:59:30;27.70;54.30
71237;DHT22;58984;51.960;5.582;2022-08-18T09:18:27;27.90;54.40
71237;DHT22;58984;51.960;5.582;2022-08-18T09:21:10;28.10;54.50
71237;DHT22;58984;51.960;5.582;2022-08-18T09:23:46;28.00;54.40
71237;DHT22;58984;51.960;5.582;2022-08-18T09:28:59;28.10;54.50
71237;DHT22;58984;51.960;5.582;2022-08-18T09:31:35;28.30;54.40
71237;DHT22;58984;51.960;5.582;2022-08-18T09:34:41;28.30;54.30
71237;DHT22;58984;51.960;5.582;2022-08-18T09:37:16;28.30;54.70
71237;DHT22;58984;51.960;5.582;2022-08-18T09:39:52;28.40;54.20
71237;DHT22;58984;51.960;5.582;2022-08-18T09:42:55;28.40;54.20
71237;DHT22;58984;51.960;5.582;2022-08-18T09:50:34;28.50;53.90
71237;DHT22;58984;51.960;5.582;2022-08-18T09:56:02;28.60;53.90
71237;DHT22;58984;51.960;5.582;2022-08-18T10:01:19;28.70;53.80
71237;DHT22;58984;51.960;5.582;2022-08-18T10:04:25;28.60;53.90
71237;DHT22;58984;51.960;5.582;2022-08-18T10:06:52;28.70;54.00
71237;DHT22;58984;51.960;5.582;2022-08-18T10:12:05;28.70;53.90
71237;DHT22;58984;51.960;5.582;2022-08-18T10:15:00;28.80;53.90
71237;DHT22;58984;51.960;5.582;2022-08-18T10:20:41;28.80;53.80
71237;DHT22;58984;51.960;5.582;2022-08-18T10:23:10;28.90;53.80
71237;DHT22;58984;51.960;5.582;2022-08-18T10:25:43;29.00;53.50
71237;DHT22;58984;51.960;5.582;2022-08-18T10:29:05;29.00;53.60
71237;DHT22;58984;51.960;5.582;2022-08-18T10:31:24;29.00;54.30
71237;DHT22;58984;51.960;5.582;2022-08-18T10:34:39;29.20;53.30
71237;DHT22;58984;51.960;5.582;2022-08-18T10:37:12;29.00;53.60
71237;DHT22;58984;51.960;5.582;2022-08-18T10:44:44;29.10;53.20
71237;DHT22;58984;51.960;5.582;2022-08-18T10:47:43;29.10;53.10
71237;DHT22;58984;51.960;5.582;2022-08-18T10:50:24;29.10;53.40
71237;DHT22;58984;51.960;5.582;2022-08-18T10:53:12;29.20;53.00
71237;DHT22;58984;51.960;5.582;2022-08-18T10:55:48;29.10;53.20
71237;DHT22;58984;51.960;5.582;2022-08-18T11:06:48;29.20;53.10
71237;DHT22;58984;51.960;5.582;2022-08-18T11:09:24;29.30;52.90
71237;DHT22;58984;51.960;5.582;2022-08-18T11:11:53;29.30;53.00
71237;DHT22;58984;51.960;5.582;2022-08-18T11:17:45;29.30;52.90
71237;DHT22;58984;51.960;5.582;2022-08-18T11:20:15;29.30;52.80
71237;DHT22;58984;51.960;5.582;2022-08-18T11:22:52;29.50;52.60
71237;DHT22;58984;51.960;5.582;2022-08-18T11:25:28;29.40;52.70
71237;DHT22;58984;51.960;5.582;2022-08-18T11:27:54;29.40;52.70
71237;DHT22;58984;51.960;5.582;2022-08-18T11:30:24;29.50;52.60
71237;DHT22;58984;51.960;5.582;2022-08-18T11:32:51;29.50;52.60
71237;DHT22;58984;51.960;5.582;2022-08-18T11:35:28;29.50;52.50
71237;DHT22;58984;51.960;5.582;2022-08-18T11:40:29;29.50;52.30
71237;DHT22;58984;51.960;5.582;2022-08-18T11:53:25;29.40;52.30
71237;DHT22;58984;51.960;5.582;2022-08-18T11:58:58;29.40;52.20
71237;DHT22;58984;51.960;5.582;2022-08-18T12:01:37;29.50;52.20
71237;DHT22;58984;51.960;5.582;2022-08-18T12:06:47;29.40;52.10
71237;DHT22;58984;51.960;5.582;2022-08-18T12:09:18;29.50;52.20
71237;DHT22;58984;51.960;5.582;2022-08-18T12:11:51;29.50;52.10
71237;DHT22;58984;51.960;5.582;2022-08-18T12:14:20;29.40;52.50
71237;DHT22;58984;51.960;5.582;2022-08-18T12:16:46;29.50;52.10
71237;DHT22;58984;51.960;5.582;2022-08-18T12:19:13;29.50;52.10
71237;DHT22;58984;51.960;5.582;2022-08-18T12:21:42;29.50;52.10
71237;DHT22;58984;51.960;5.582;2022-08-18T12:24:22;29.50;52.10
71237;DHT22;58984;51.960;5.582;2022-08-18T12:26:48;29.40;52.10
71237;DHT22;58984;51.960;5.582;2022-08-18T12:29:15;29.50;52.00
71237;DHT22;58984;51.960;5.582;2022-08-18T12:31:43;29.50;52.00
71237;DHT22;58984;51.960;5.582;2022-08-18T12:34:08;29.60;52.00
71237;DHT22;58984;51.960;5.582;2022-08-18T12:36:34;29.60;52.00
71237;DHT22;58984;51.960;5.582;2022-08-18T12:39:00;29.60;52.00
71237;DHT22;58984;51.960;5.582;2022-08-18T12:41:26;29.70;52.00
71237;DHT22;58984;51.960;5.582;2022-08-18T12:43:52;29.70;51.90
71237;DHT22;58984;51.960;5.582;2022-08-18T12:46:18;29.70;51.90
71237;DHT22;58984;51.960;5.582;2022-08-18T12:48:44;29.70;51.90
71237;DHT22;58984;51.960;5.582;2022-08-18T12:51:10;29.70;51.90
71237;DHT22;58984;51.960;5.582;2022-08-18T12:53:37;29.70;51.90
71237;DHT22;58984;51.960;5.582;2022-08-18T12:56:02;29.70;51.90
71237;DHT22;58984;51.960;5.582;2022-08-18T12:58:29;29.70;51.90
71237;DHT22;58984;51.960;5.582;2022-08-18T13:00:55;29.70;51.80
71237;DHT22;58984;51.960;5.582;2022-08-18T13:03:20;29.80;51.90
71237;DHT22;58984;51.960;5.582;2022-08-18T13:05:46;29.80;51.80
71237;DHT22;58984;51.960;5.582;2022-08-18T13:08:18;29.80;51.80
71237;DHT22;58984;51.960;5.582;2022-08-18T13:10:45;29.70;51.80
71237;DHT22;58984;51.960;5.582;2022-08-18T13:13:10;29.80;51.70
71237;DHT22;58984;51.960;5.582;2022-08-18T13:15:36;29.80;51.70
71237;DHT22;58984;51.960;5.582;2022-08-18T13:18:02;29.90;51.80
71237;DHT22;58984;51.960;5.582;2022-08-18T13:20:28;29.90;51.70
71237;DHT22;58984;51.960;5.582;2022-08-18T13:22:54;29.90;51.80
71237;DHT22;58984;51.960;5.582;2022-08-18T13:25:20;29.90;51.70
71237;DHT22;58984;51.960;5.582;2022-08-18T13:27:45;29.90;51.70
71237;DHT22;58984;51.960;5.582;2022-08-18T13:30:15;29.90;51.60
71237;DHT22;58984;51.960;5.582;2022-08-18T13:32:41;29.90;51.60
71237;DHT22;58984;51.960;5.582;2022-08-18T13:35:09;29.90;51.50
71237;DHT22;58984;51.960;5.582;2022-08-18T13:37:35;29.90;51.50
71237;DHT22;58984;51.960;5.582;2022-08-18T13:40:00;30.00;51.50
71237;DHT22;58984;51.960;5.582;2022-08-18T13:42:27;30.00;51.50
71237;DHT22;58984;51.960;5.582;2022-08-18T13:44:54;30.00;51.50
71237;DHT22;58984;51.960;5.582;2022-08-18T13:47:22;30.00;51.50
71237;DHT22;58984;51.960;5.582;2022-08-18T13:49:54;30.00;51.40
71237;DHT22;58984;51.960;5.582;2022-08-18T13:52:19;30.00;51.20
71237;DHT22;58984;51.960;5.582;2022-08-18T13:54:45;30.00;51.10
71237;DHT22;58984;51.960;5.582;2022-08-18T13:57:11;30.00;51.10
71237;DHT22;58984;51.960;5.582;2022-08-18T13:59:37;30.00;51.10
71237;DHT22;58984;51.960;5.582;2022-08-18T14:02:07;30.00;50.90
71237;DHT22;58984;51.960;5.582;2022-08-18T14:04:33;29.90;50.80
71237;DHT22;58984;51.960;5.582;2022-08-18T14:07:00;30.00;50.90
71237;DHT22;58984;51.960;5.582;2022-08-18T14:09:28;30.00;50.90
71237;DHT22;58984;51.960;5.582;2022-08-18T14:11:54;30.00;51.00
71237;DHT22;58984;51.960;5.582;2022-08-18T14:14:20;30.00;51.00
71237;DHT22;58984;51.960;5.582;2022-08-18T14:16:46;30.00;51.00
71237;DHT22;58984;51.960;5.582;2022-08-18T14:19:12;30.00;51.00
71237;DHT22;58984;51.960;5.582;2022-08-18T14:22:00;30.00;50.90
71237;DHT22;58984;51.960;5.582;2022-08-18T14:24:45;30.10;50.90
71237;DHT22;58984;51.960;5.582;2022-08-18T14:27:32;30.10;50.90
71237;DHT22;58984;51.960;5.582;2022-08-18T14:29:59;30.10;51.00
71237;DHT22;58984;51.960;5.582;2022-08-18T14:32:26;30.10;50.90
71237;DHT22;58984;51.960;5.582;2022-08-18T14:34:57;30.10;50.90
71237;DHT22;58984;51.960;5.582;2022-08-18T14:37:24;30.10;51.00
71237;DHT22;58984;51.960;5.582;2022-08-18T14:39:50;30.10;50.90
71237;DHT22;58984;51.960;5.582;2022-08-18T14:42:16;30.10;50.90
71237;DHT22;58984;51.960;5.582;2022-08-18T14:44:43;30.10;50.90
71237;DHT22;58984;51.960;5.582;2022-08-18T14:47:10;30.10;51.00
71237;DHT22;58984;51.960;5.582;2022-08-18T14:49:35;30.10;50.90
71237;DHT22;58984;51.960;5.582;2022-08-18T14:52:02;30.10;51.50
71237;DHT22;58984;51.960;5.582;2022-08-18T14:54:29;30.10;50.90
71237;DHT22;58984;51.960;5.582;2022-08-18T14:56:55;30.10;50.90
71237;DHT22;58984;51.960;5.582;2022-08-18T14:59:21;30.20;51.00
71237;DHT22;58984;51.960;5.582;2022-08-18T15:01:49;30.20;51.00
71237;DHT22;58984;51.960;5.582;2022-08-18T15:04:15;30.20;50.90
71237;DHT22;58984;51.960;5.582;2022-08-18T15:06:41;30.20;50.90
71237;DHT22;58984;51.960;5.582;2022-08-18T15:09:07;30.20;50.90
71237;DHT22;58984;51.960;5.582;2022-08-18T15:11:34;30.20;50.90
71237;DHT22;58984;51.960;5.582;2022-08-18T15:13:59;30.20;50.90
71237;DHT22;58984;51.960;5.582;2022-08-18T15:16:25;30.20;50.80
71237;DHT22;58984;51.960;5.582;2022-08-18T15:18:52;30.30;50.90
71237;DHT22;58984;51.960;5.582;2022-08-18T15:21:17;30.30;50.80
71237;DHT22;58984;51.960;5.582;2022-08-18T15:24:02;30.30;50.80
71237;DHT22;58984;51.960;5.582;2022-08-18T15:26:47;30.30;50.80
71237;DHT22;58984;51.960;5.582;2022-08-18T15:29:13;30.30;50.80
71237;DHT22;58984;51.960;5.582;2022-08-18T15:31:39;30.30;50.70
71237;DHT22;58984;51.960;5.582;2022-08-18T15:34:04;30.30;50.70
71237;DHT22;58984;51.960;5.582;2022-08-18T15:36:30;30.30;50.80
71237;DHT22;58984;51.960;5.582;2022-08-18T15:38:58;30.30;50.70
71237;DHT22;58984;51.960;5.582;2022-08-18T15:41:29;30.30;50.70
71237;DHT22;58984;51.960;5.582;2022-08-18T15:43:55;30.30;50.70
71237;DHT22;58984;51.960;5.582;2022-08-18T15:46:21;30.40;50.70
71237;DHT22;58984;51.960;5.582;2022-08-18T15:48:47;30.30;50.60
71237;DHT22;58984;51.960;5.582;2022-08-18T15:51:13;30.30;50.60
71237;DHT22;58984;51.960;5.582;2022-08-18T15:53:39;30.40;50.60
71237;DHT22;58984;51.960;5.582;2022-08-18T15:56:07;30.30;50.50
71237;DHT22;58984;51.960;5.582;2022-08-18T15:58:36;30.40;50.60
71237;DHT22;58984;51.960;5.582;2022-08-18T16:01:08;30.40;50.60
71237;DHT22;58984;51.960;5.582;2022-08-18T16:03:34;30.30;50.50
71237;DHT22;58984;51.960;5.582;2022-08-18T16:06:01;30.30;50.50
71237;DHT22;58984;51.960;5.582;2022-08-18T16:08:26;30.30;50.50
71237;DHT22;58984;51.960;5.582;2022-08-18T16:10:53;30.30;50.40
71237;DHT22;58984;51.960;5.582;2022-08-18T16:13:20;30.40;50.50
71237;DHT22;58984;51.960;5.582;2022-08-18T16:15:47;30.30;50.40
71237;DHT22;58984;51.960;5.582;2022-08-18T16:18:16;30.30;50.40
71237;DHT22;58984;51.960;5.582;2022-08-18T16:20:42;30.30;50.40
71237;DHT22;58984;51.960;5.582;2022-08-18T16:23:08;30.30;50.40
71237;DHT22;58984;51.960;5.582;2022-08-18T16:25:39;30.30;50.40
71237;DHT22;58984;51.960;5.582;2022-08-18T16:28:05;30.20;50.20
71237;DHT22;58984;51.960;5.582;2022-08-18T16:30:31;30.30;50.30
71237;DHT22;58984;51.960;5.582;2022-08-18T16:33:03;30.30;50.30
71237;DHT22;58984;51.960;5.582;2022-08-18T16:35:30;30.20;50.20
71237;DHT22;58984;51.960;5.582;2022-08-18T16:37:55;30.30;50.20
71237;DHT22;58984;51.960;5.582;2022-08-18T16:40:25;30.30;50.20
71237;DHT22;58984;51.960;5.582;2022-08-18T16:42:53;30.20;50.20
71237;DHT22;58984;51.960;5.582;2022-08-18T16:45:18;30.20;50.30
71237;DHT22;58984;51.960;5.582;2022-08-18T16:47:44;30.20;50.20
71237;DHT22;58984;51.960;5.582;2022-08-18T16:50:12;30.20;50.30
71237;DHT22;58984;51.960;5.582;2022-08-18T16:52:39;30.10;50.20
71237;DHT22;58984;51.960;5.582;2022-08-18T16:55:06;30.20;50.20
71237;DHT22;58984;51.960;5.582;2022-08-18T16:57:32;30.20;50.20
71237;DHT22;58984;51.960;5.582;2022-08-18T17:00:16;30.20;50.20
71237;DHT22;58984;51.960;5.582;2022-08-18T17:03:05;30.10;49.70
71237;DHT22;58984;51.960;5.582;2022-08-18T17:06:00;30.10;50.10
71237;DHT22;58984;51.960;5.582;2022-08-18T17:08:26;30.10;50.10
71237;DHT22;58984;51.960;5.582;2022-08-18T17:10:52;30.20;50.10
71237;DHT22;58984;51.960;5.582;2022-08-18T17:13:18;30.10;50.10
71237;DHT22;58984;51.960;5.582;2022-08-18T17:15:50;30.10;50.10
71237;DHT22;58984;51.960;5.582;2022-08-18T17:18:16;30.10;50.20
71237;DHT22;58984;51.960;5.582;2022-08-18T17:20:42;30.30;50.20
71237;DHT22;58984;51.960;5.582;2022-08-18T17:23:07;30.30;49.80
71237;DHT22;58984;51.960;5.582;2022-08-18T17:25:33;30.20;50.00
71237;DHT22;58984;51.960;5.582;2022-08-18T17:27:59;30.10;50.10
71237;DHT22;58984;51.960;5.582;2022-08-18T17:30:29;30.10;50.10
71237;DHT22;58984;51.960;5.582;2022-08-18T17:33:06;30.00;50.00
71237;DHT22;58984;51.960;5.582;2022-08-18T17:35:39;29.90;50.10
71237;DHT22;58984;51.960;5.582;2022-08-18T17:38:31;30.00;50.10
71237;DHT22;58984;51.960;5.582;2022-08-18T17:40:57;30.10;50.10
71237;DHT22;58984;51.960;5.582;2022-08-18T17:43:34;30.10;50.00
71237;DHT22;58984;51.960;5.582;2022-08-18T17:46:09;30.00;50.40
71237;DHT22;58984;51.960;5.582;2022-08-18T17:48:42;30.00;50.20
71237;DHT22;58984;51.960;5.582;2022-08-18T17:51:27;30.00;50.40
71237;DHT22;58984;51.960;5.582;2022-08-18T17:54:00;30.00;50.50
71237;DHT22;58984;51.960;5.582;2022-08-18T17:56:34;30.00;50.40
71237;DHT22;58984;51.960;5.582;2022-08-18T17:59:11;30.00;50.50
71237;DHT22;58984;51.960;5.582;2022-08-18T18:01:39;29.90;50.60